sensor_id;sensor_type;location;lat;lon;timestamp;temperature;humidity
15554;DHT22;7878;44.632;10.942;2023-02-28T00:00:21;6.60;95.00
15554;DHT22;7878;44.632;10.942;2023-02-28T00:02:47;6.70;95.20
15554;DHT22;7878;44.632;10.942;2023-02-28T00:05:16;6.70;95.10
15554;DHT22;7878;44.632;10.942;2023-02-28T00:07:42;6.80;95.00
15554;DHT22;7878;44.632;10.942;2023-02-28T00:10:10;6.80;95.10
15554;DHT22;7878;44.632;10.942;2023-02-28T00:12:37;6.90;94.90
15554;DHT22;7878;44.632;10.942;2023-02-28T00:15:06;6.90;95.10
15554;DHT22;7878;44.632;10.942;2023-02-28T00:17:32;6.90;95.20
15554;DHT22;7878;44.632;10.942;2023-02-28T00:19:58;6.90;95.20
15554;DHT22;7878;44.632;10.942;2023-02-28T00:22:38;7.00;94.80
15554;DHT22;7878;44.632;10.942;2023-02-28T00:25:04;7.00;95.30
15554;DHT22;7878;44.632;10.942;2023-02-28T00:27:32;7.00;94.50
15554;DHT22;7878;44.632;10.942;2023-02-28T00:29:58;7.00;94.50
15554;DHT22;7878;44.632;10.942;2023-02-28T00:32:24;7.10;94.30
15554;DHT22;7878;44.632;10.942;2023-02-28T00:34:49;7.00;93.90
15554;DHT22;7878;44.632;10.942;2023-02-28T00:37:15;7.00;93.80
15554;DHT22;7878;44.632;10.942;2023-02-28T00:39:41;7.00;93.50
15554;DHT22;7878;44.632;10.942;2023-02-28T00:42:07;7.00;93.60
15554;DHT22;7878;44.632;10.942;2023-02-28T00:44:33;7.00;93.30
15554;DHT22;7878;44.632;10.942;2023-02-28T00:46:59;7.00;92.90
15554;DHT22;7878;44.632;10.942;2023-02-28T00:49:25;7.10;93.10
15554;DHT22;7878;44.632;10.942;2023-02-28T00:51:52;7.10;93.00
15554;DHT22;7878;44.632;10.942;2023-02-28T00:54:18;7.10;93.00
15554;DHT22;7878;44.632;10.942;2023-02-28T00:56:43;7.10;92.50
15554;DHT22;7878;44.632;10.942;2023-02-28T00:59:09;7.10;92.70
15554;DHT22;7878;44.632;10.942;2023-02-28T01:01:35;7.10;92.80
15554;DHT22;7878;44.632;10.942;2023-02-28T01:04:00;7.10;92.50
15554;DHT22;7878;44.632;10.942;2023-02-28T01:06:26;7.10;92.80
15554;DHT22;7878;44.632;10.942;2023-02-28T01:08:51;7.20;92.80
15554;DHT22;7878;44.632;10.942;2023-02-28T01:11:17;7.20;93.00
15554;DHT22;7878;44.632;10.942;2023-02-28T01:13:44;7.20;92.50
15554;DHT22;7878;44.632;10.942;2023-02-28T01:16:11;7.20;92.20
15554;DHT22;7878;44.632;10.942;2023-02-28T01:18:37;7.20;92.10
15554;DHT22;7878;44.632;10.942;2023-02-28T01:21:12;7.20;92.10
15554;DHT22;7878;44.632;10.942;2023-02-28T01:23:38;7.10;91.40
15554;DHT22;7878;44.632;10.942;2023-02-28T01:26:18;7.10;91.60
15554;DHT22;7878;44.632;10.942;2023-02-28T01:28:44;7.10;92.00
15554;DHT22;7878;44.632;10.942;2023-02-28T01:31:11;7.20;92.00
15554;DHT22;7878;44.632;10.942;2023-02-28T01:33:37;7.10;91.70
15554;DHT22;7878;44.632;10.942;2023-02-28T01:36:05;7.10;91.40
15554;DHT22;7878;44.632;10.942;2023-02-28T01:38:33;7.10;91.30
15554;DHT22;7878;44.632;10.942;2023-02-28T01:40:58;7.10;91.50
15554;DHT22;7878;44.632;10.942;2023-02-28T01:43:26;7.10;91.50
15554;DHT22;7878;44.632;10.942;2023-02-28T01:45:54;7.10;91.10
15554;DHT22;7878;44.632;10.942;2023-02-28T01:48:26;7.10;91.10
15554;DHT22;7878;44.632;10.942;2023-02-28T01:50:53;7.10;90.70
15554;DHT22;7878;44.632;10.942;2023-02-28T01:53:26;7.10;90.70
15554;DHT22;7878;44.632;10.942;2023-02-28T01:55:55;7.10;90.50
15554;DHT22;7878;44.632;10.942;2023-02-28T01:58:21;7.10;90.70
15554;DHT22;7878;44.632;10.942;2023-02-28T02:00:47;7.10;90.80
15554;DHT22;7878;44.632;10.942;2023-02-28T02:03:15;7.10;90.90
15554;DHT22;7878;44.632;10.942;2023-02-28T02:05:44;7.10;90.60
15554;DHT22;7878;44.632;10.942;2023-02-28T02:08:17;7.10;90.70
15554;DHT22;7878;44.632;10.942;2023-02-28T02:10:51;7.10;90.80
15554;DHT22;7878;44.632;10.942;2023-02-28T02:40:22;6.90;89.90
15554;DHT22;7878;44.632;10.942;2023-02-28T02:43:07;6.90;89.00
15554;DHT22;7878;44.632;10.942;2023-02-28T02:45:55;6.90;89.80
15554;DHT22;7878;44.632;10.942;2023-02-28T02:48:25;6.90;89.10
15554;DHT22;7878;44.632;10.942;2023-02-28T02:50:56;6.80;90.10
15554;DHT22;7878;44.632;10.942;2023-02-28T02:53:28;6.80;90.00
15554;DHT22;7878;44.632;10.942;2023-02-28T02:55:56;6.80;89.70
15554;DHT22;7878;44.632;10.942;2023-02-28T02:58:26;6.90;89.80
15554;DHT22;7878;44.632;10.942;2023-02-28T03:00:58;6.80;90.10
15554;DHT22;7878;44.632;10.942;2023-02-28T03:03:25;6.90;89.90
15554;DHT22;7878;44.632;10.942;2023-02-28T03:05:57;7.00;90.10
15554;DHT22;7878;44.632;10.942;2023-02-28T03:08:23;7.00;89.20
15554;DHT22;7878;44.632;10.942;2023-02-28T03:10:51;7.00;89.20
15554;DHT22;7878;44.632;10.942;2023-02-28T03:27:01;6.90;89.10
15554;DHT22;7878;44.632;10.942;2023-02-28T03:29:56;6.90;89.10
15554;DHT22;7878;44.632;10.942;2023-02-28T03:35:14;6.90;89.70
15554;DHT22;7878;44.632;10.942;2023-02-28T03:37:49;6.90;90.30
15554;DHT22;7878;44.632;10.942;2023-02-28T03:40:19;7.00;90.00
15554;DHT22;7878;44.632;10.942;2023-02-28T03:42:49;7.00;89.20
15554;DHT22;7878;44.632;10.942;2023-02-28T03:45:21;7.00;88.70
15554;DHT22;7878;44.632;10.942;2023-02-28T03:48:24;6.90;88.50
15554;DHT22;7878;44.632;10.942;2023-02-28T03:50:56;6.90;88.40
15554;DHT22;7878;44.632;10.942;2023-02-28T03:53:39;6.80;89.00
15554;DHT22;7878;44.632;10.942;2023-02-28T03:56:30;6.80;88.30
15554;DHT22;7878;44.632;10.942;2023-02-28T03:59:12;6.70;88.60
15554;DHT22;7878;44.632;10.942;2023-02-28T04:01:41;6.70;88.80
15554;DHT22;7878;44.632;10.942;2023-02-28T04:04:10;6.70;89.00
15554;DHT22;7878;44.632;10.942;2023-02-28T04:06:36;6.70;89.00
15554;DHT22;7878;44.632;10.942;2023-02-28T04:09:03;6.70;89.00
15554;DHT22;7878;44.632;10.942;2023-02-28T04:11:37;6.70;89.10
15554;DHT22;7878;44.632;10.942;2023-02-28T04:14:04;6.60;88.70
15554;DHT22;7878;44.632;10.942;2023-02-28T04:16:31;6.60;88.90
15554;DHT22;7878;44.632;10.942;2023-02-28T04:18:57;6.60;89.60
15554;DHT22;7878;44.632;10.942;2023-02-28T04:21:31;6.60;90.00
15554;DHT22;7878;44.632;10.942;2023-02-28T04:23:57;6.70;90.00
15554;DHT22;7878;44.632;10.942;2023-02-28T04:26:32;6.70;90.00
15554;DHT22;7878;44.632;10.942;2023-02-28T04:28:59;6.70;90.10
15554;DHT22;7878;44.632;10.942;2023-02-28T04:31:25;6.70;89.70
15554;DHT22;7878;44.632;10.942;2023-02-28T04:33:51;6.70;89.70
15554;DHT22;7878;44.632;10.942;2023-02-28T04:36:17;6.70;89.80
15554;DHT22;7878;44.632;10.942;2023-02-28T04:38:44;6.70;90.00
15554;DHT22;7878;44.632;10.942;2023-02-28T04:41:11;6.70;90.00
15554;DHT22;7878;44.632;10.942;2023-02-28T04:43:37;6.70;89.40
15554;DHT22;7878;44.632;10.942;2023-02-28T04:46:04;6.70;89.40
15554;DHT22;7878;44.632;10.942;2023-02-28T04:48:32;6.70;90.00
15554;DHT22;7878;44.632;10.942;2023-02-28T04:51:07;6.70;89.80
15554;DHT22;7878;44.632;10.942;2023-02-28T04:53:33;6.80;89.90
15554;DHT22;7878;44.632;10.942;2023-02-28T04:55:59;6.70;89.10
15554;DHT22;7878;44.632;10.942;2023-02-28T04:58:25;6.80;89.60
15554;DHT22;7878;44.632;10.942;2023-02-28T05:00:52;6.80;89.10
15554;DHT22;7878;44.632;10.942;2023-02-28T05:03:19;6.80;89.80
15554;DHT22;7878;44.632;10.942;2023-02-28T05:05:46;6.80;89.00
15554;DHT22;7878;44.632;10.942;2023-02-28T05:08:12;6.80;89.40
15554;DHT22;7878;44.632;10.942;2023-02-28T05:10:38;6.80;90.10
15554;DHT22;7878;44.632;10.942;2023-02-28T05:13:03;6.80;90.10
15554;DHT22;7878;44.632;10.942;2023-02-28T05:15:29;6.90;89.60
15554;DHT22;7878;44.632;10.942;2023-02-28T05:17:55;6.90;90.30
15554;DHT22;7878;44.632;10.942;2023-02-28T05:20:20;6.90;90.20
15554;DHT22;7878;44.632;10.942;2023-02-28T05:22:46;6.90;89.90
15554;DHT22;7878;44.632;10.942;2023-02-28T05:25:15;6.90;90.10
15554;DHT22;7878;44.632;10.942;2023-02-28T05:27:41;6.90;90.10
15554;DHT22;7878;44.632;10.942;2023-02-28T05:30:07;6.90;90.00
15554;DHT22;7878;44.632;10.942;2023-02-28T05:32:36;6.90;90.10
15554;DHT22;7878;44.632;10.942;2023-02-28T05:35:02;7.00;89.70
15554;DHT22;7878;44.632;10.942;2023-02-28T05:37:28;6.90;89.40
15554;DHT22;7878;44.632;10.942;2023-02-28T05:39:53;6.90;90.00
15554;DHT22;7878;44.632;10.942;2023-02-28T05:42:19;6.90;89.70
15554;DHT22;7878;44.632;10.942;2023-02-28T05:44:45;6.90;90.20
15554;DHT22;7878;44.632;10.942;2023-02-28T05:47:11;7.00;89.60
15554;DHT22;7878;44.632;10.942;2023-02-28T05:49:38;6.90;89.50
15554;DHT22;7878;44.632;10.942;2023-02-28T05:52:03;6.90;89.40
15554;DHT22;7878;44.632;10.942;2023-02-28T05:54:29;7.00;89.20
15554;DHT22;7878;44.632;10.942;2023-02-28T05:56:55;7.00;89.60
15554;DHT22;7878;44.632;10.942;2023-02-28T05:59:20;7.00;89.90
15554;DHT22;7878;44.632;10.942;2023-02-28T06:01:46;7.00;90.00
15554;DHT22;7878;44.632;10.942;2023-02-28T06:04:17;6.90;89.70
15554;DHT22;7878;44.632;10.942;2023-02-28T06:06:45;6.90;89.70
15554;DHT22;7878;44.632;10.942;2023-02-28T06:09:11;6.90;89.10
15554;DHT22;7878;44.632;10.942;2023-02-28T06:11:37;6.90;89.90
15554;DHT22;7878;44.632;10.942;2023-02-28T06:14:04;6.90;89.50
15554;DHT22;7878;44.632;10.942;2023-02-28T06:16:31;6.90;89.20
15554;DHT22;7878;44.632;10.942;2023-02-28T06:18:59;6.80;89.00
15554;DHT22;7878;44.632;10.942;2023-02-28T06:21:25;6.80;89.10
15554;DHT22;7878;44.632;10.942;2023-02-28T06:23:53;6.80;89.80
15554;DHT22;7878;44.632;10.942;2023-02-28T06:26:19;6.70;89.00
15554;DHT22;7878;44.632;10.942;2023-02-28T06:28:46;6.70;89.00
15554;DHT22;7878;44.632;10.942;2023-02-28T06:31:15;6.60;89.00
15554;DHT22;7878;44.632;10.942;2023-02-28T06:33:42;6.70;89.70
15554;DHT22;7878;44.632;10.942;2023-02-28T06:36:09;6.70;89.80
15554;DHT22;7878;44.632;10.942;2023-02-28T06:38:35;6.80;89.30
15554;DHT22;7878;44.632;10.942;2023-02-28T06:41:02;6.70;89.00
15554;DHT22;7878;44.632;10.942;2023-02-28T06:43:30;6.70;89.70
15554;DHT22;7878;44.632;10.942;2023-02-28T06:45:57;6.80;89.90
15554;DHT22;7878;44.632;10.942;2023-02-28T06:48:25;6.80;89.30
15554;DHT22;7878;44.632;10.942;2023-02-28T06:50:51;6.70;88.70
15554;DHT22;7878;44.632;10.942;2023-02-28T06:53:16;6.70;88.90
15554;DHT22;7878;44.632;10.942;2023-02-28T06:55:42;6.70;88.40
15554;DHT22;7878;44.632;10.942;2023-02-28T06:58:08;6.70;88.80
15554;DHT22;7878;44.632;10.942;2023-02-28T07:00:43;6.70;89.00
15554;DHT22;7878;44.632;10.942;2023-02-28T07:03:10;6.70;89.00
15554;DHT22;7878;44.632;10.942;2023-02-28T07:05:37;6.80;88.70
15554;DHT22;7878;44.632;10.942;2023-02-28T07:08:04;6.80;88.70
15554;DHT22;7878;44.632;10.942;2023-02-28T07:10:30;6.80;89.00
15554;DHT22;7878;44.632;10.942;2023-02-28T07:12:56;6.80;88.10
15554;DHT22;7878;44.632;10.942;2023-02-28T07:15:22;6.80;88.70
15554;DHT22;7878;44.632;10.942;2023-02-28T07:17:48;6.80;89.00
15554;DHT22;7878;44.632;10.942;2023-02-28T07:20:13;6.90;88.70
15554;DHT22;7878;44.632;10.942;2023-02-28T07:22:39;6.90;88.10
15554;DHT22;7878;44.632;10.942;2023-02-28T07:25:05;6.90;88.30
15554;DHT22;7878;44.632;10.942;2023-02-28T07:27:31;7.00;88.70
15554;DHT22;7878;44.632;10.942;2023-02-28T07:29:57;7.00;88.60
15554;DHT22;7878;44.632;10.942;2023-02-28T07:32:23;7.00;87.50
15554;DHT22;7878;44.632;10.942;2023-02-28T07:34:49;7.00;87.50
15554;DHT22;7878;44.632;10.942;2023-02-28T07:37:14;7.00;87.50
15554;DHT22;7878;44.632;10.942;2023-02-28T07:39:40;7.00;87.80
15554;DHT22;7878;44.632;10.942;2023-02-28T07:42:09;7.10;87.70
15554;DHT22;7878;44.632;10.942;2023-02-28T07:44:39;7.20;88.70
15554;DHT22;7878;44.632;10.942;2023-02-28T07:47:09;7.20;88.30
15554;DHT22;7878;44.632;10.942;2023-02-28T07:49:36;7.20;88.00
15554;DHT22;7878;44.632;10.942;2023-02-28T07:52:06;7.30;87.80
15554;DHT22;7878;44.632;10.942;2023-02-28T07:54:33;7.30;87.20
15554;DHT22;7878;44.632;10.942;2023-02-28T07:56:59;7.30;87.20
15554;DHT22;7878;44.632;10.942;2023-02-28T07:59:24;7.20;87.30
15554;DHT22;7878;44.632;10.942;2023-02-28T08:01:50;7.20;87.10
15554;DHT22;7878;44.632;10.942;2023-02-28T08:04:17;7.20;87.20
15554;DHT22;7878;44.632;10.942;2023-02-28T08:06:43;7.30;87.30
15554;DHT22;7878;44.632;10.942;2023-02-28T08:09:09;7.40;87.00
15554;DHT22;7878;44.632;10.942;2023-02-28T08:11:35;7.30;86.40
15554;DHT22;7878;44.632;10.942;2023-02-28T08:14:01;7.40;86.20
15554;DHT22;7878;44.632;10.942;2023-02-28T08:16:27;7.40;86.80
15554;DHT22;7878;44.632;10.942;2023-02-28T08:18:53;7.50;86.90
15554;DHT22;7878;44.632;10.942;2023-02-28T08:21:20;7.50;86.50
15554;DHT22;7878;44.632;10.942;2023-02-28T08:23:50;7.60;86.40
15554;DHT22;7878;44.632;10.942;2023-02-28T08:26:17;7.70;87.00
15554;DHT22;7878;44.632;10.942;2023-02-28T08:28:42;7.70;86.90
15554;DHT22;7878;44.632;10.942;2023-02-28T08:31:10;7.70;86.80
15554;DHT22;7878;44.632;10.942;2023-02-28T08:33:37;7.80;86.70
15554;DHT22;7878;44.632;10.942;2023-02-28T08:36:05;7.70;86.60
15554;DHT22;7878;44.632;10.942;2023-02-28T08:38:31;7.70;85.90
15554;DHT22;7878;44.632;10.942;2023-02-28T08:40:58;7.70;86.40
15554;DHT22;7878;44.632;10.942;2023-02-28T08:43:24;7.70;86.40
15554;DHT22;7878;44.632;10.942;2023-02-28T08:45:53;7.70;87.10
15554;DHT22;7878;44.632;10.942;2023-02-28T08:48:19;7.80;86.00
15554;DHT22;7878;44.632;10.942;2023-02-28T08:50:44;7.80;86.30
15554;DHT22;7878;44.632;10.942;2023-02-28T08:53:10;7.90;86.50
15554;DHT22;7878;44.632;10.942;2023-02-28T08:55:36;7.90;87.10
15554;DHT22;7878;44.632;10.942;2023-02-28T08:58:01;8.10;87.70
15554;DHT22;7878;44.632;10.942;2023-02-28T09:00:27;8.20;86.90
15554;DHT22;7878;44.632;10.942;2023-02-28T09:02:53;8.20;85.90
15554;DHT22;7878;44.632;10.942;2023-02-28T09:05:20;8.10;85.80
15554;DHT22;7878;44.632;10.942;2023-02-28T09:07:45;8.10;86.50
15554;DHT22;7878;44.632;10.942;2023-02-28T09:10:11;8.30;86.10
15554;DHT22;7878;44.632;10.942;2023-02-28T09:12:36;8.50;84.70
15554;DHT22;7878;44.632;10.942;2023-02-28T09:15:03;8.50;85.40
15554;DHT22;7878;44.632;10.942;2023-02-28T09:17:29;8.70;86.40
15554;DHT22;7878;44.632;10.942;2023-02-28T09:19:55;8.90;87.30
15554;DHT22;7878;44.632;10.942;2023-02-28T09:22:20;9.10;86.20
15554;DHT22;7878;44.632;10.942;2023-02-28T09:24:46;9.10;85.40
15554;DHT22;7878;44.632;10.942;2023-02-28T09:27:12;9.00;85.00
15554;DHT22;7878;44.632;10.942;2023-02-28T09:29:38;9.10;86.20
15554;DHT22;7878;44.632;10.942;2023-02-28T09:32:03;9.20;86.10
15554;DHT22;7878;44.632;10.942;2023-02-28T09:34:31;9.40;86.40
15554;DHT22;7878;44.632;10.942;2023-02-28T09:36:56;9.50;86.00
15554;DHT22;7878;44.632;10.942;2023-02-28T09:39:22;9.70;86.00
15554;DHT22;7878;44.632;10.942;2023-02-28T09:41:51;9.90;85.50
15554;DHT22;7878;44.632;10.942;2023-02-28T09:44:31;10.00;82.40
15554;DHT22;7878;44.632;10.942;2023-02-28T09:47:01;10.00;83.40
15554;DHT22;7878;44.632;10.942;2023-02-28T09:49:38;10.00;82.90
15554;DHT22;7878;44.632;10.942;2023-02-28T09:52:12;10.00;82.80
15554;DHT22;7878;44.632;10.942;2023-02-28T09:54:39;10.00;83.70
15554;DHT22;7878;44.632;10.942;2023-02-28T09:57:33;10.00;83.60
15554;DHT22;7878;44.632;10.942;2023-02-28T10:00:24;10.00;81.30
15554;DHT22;7878;44.632;10.942;2023-02-28T10:05:56;9.80;82.80
15554;DHT22;7878;44.632;10.942;2023-02-28T10:08:27;9.80;83.60
15554;DHT22;7878;44.632;10.942;2023-02-28T10:10:58;9.70;84.40
15554;DHT22;7878;44.632;10.942;2023-02-28T10:13:36;9.60;83.40
15554;DHT22;7878;44.632;10.942;2023-02-28T10:16:12;9.60;83.80
15554;DHT22;7878;44.632;10.942;2023-02-28T10:18:46;9.60;83.00
15554;DHT22;7878;44.632;10.942;2023-02-28T10:21:23;9.60;83.50
15554;DHT22;7878;44.632;10.942;2023-02-28T10:24:15;9.60;83.50
15554;DHT22;7878;44.632;10.942;2023-02-28T10:26:45;9.60;83.50
15554;DHT22;7878;44.632;10.942;2023-02-28T10:29:12;9.70;85.30
15554;DHT22;7878;44.632;10.942;2023-02-28T10:31:39;9.80;84.80
15554;DHT22;7878;44.632;10.942;2023-02-28T10:34:05;9.80;84.80
15554;DHT22;7878;44.632;10.942;2023-02-28T10:36:32;9.80;84.40
15554;DHT22;7878;44.632;10.942;2023-02-28T10:38:57;9.80;84.80
15554;DHT22;7878;44.632;10.942;2023-02-28T10:41:30;9.90;84.90
15554;DHT22;7878;44.632;10.942;2023-02-28T10:44:21;9.90;84.90
15554;DHT22;7878;44.632;10.942;2023-02-28T10:46:48;9.90;82.50
15554;DHT22;7878;44.632;10.942;2023-02-28T10:49:21;9.90;84.90
15554;DHT22;7878;44.632;10.942;2023-02-28T10:51:51;9.80;84.20
15554;DHT22;7878;44.632;10.942;2023-02-28T10:54:31;9.80;83.60
15554;DHT22;7878;44.632;10.942;2023-02-28T10:57:21;9.70;83.10
15554;DHT22;7878;44.632;10.942;2023-02-28T11:00:17;9.80;83.70
15554;DHT22;7878;44.632;10.942;2023-02-28T11:02:38;9.80;84.50
15554;DHT22;7878;44.632;10.942;2023-02-28T11:05:28;9.80;84.30
15554;DHT22;7878;44.632;10.942;2023-02-28T11:08:14;9.90;84.10
15554;DHT22;7878;44.632;10.942;2023-02-28T11:10:46;9.90;84.90
15554;DHT22;7878;44.632;10.942;2023-02-28T11:13:20;9.90;84.90
15554;DHT22;7878;44.632;10.942;2023-02-28T11:15:56;10.00;83.10
15554;DHT22;7878;44.632;10.942;2023-02-28T11:20:59;10.00;83.60
15554;DHT22;7878;44.632;10.942;2023-02-28T11:23:29;9.90;83.20
15554;DHT22;7878;44.632;10.942;2023-02-28T11:26:01;10.00;82.20
15554;DHT22;7878;44.632;10.942;2023-02-28T11:28:32;10.10;82.60
15554;DHT22;7878;44.632;10.942;2023-02-28T11:33:55;10.10;82.40
15554;DHT22;7878;44.632;10.942;2023-02-28T11:36:24;10.20;82.80
15554;DHT22;7878;44.632;10.942;2023-02-28T11:38:51;10.30;82.70
15554;DHT22;7878;44.632;10.942;2023-02-28T11:42:22;10.40;81.90
15554;DHT22;7878;44.632;10.942;2023-02-28T11:58:14;10.90;81.70
15554;DHT22;7878;44.632;10.942;2023-02-28T12:11:28;11.00;79.30
15554;DHT22;7878;44.632;10.942;2023-02-28T12:16:54;11.00;79.50
15554;DHT22;7878;44.632;10.942;2023-02-28T12:19:53;11.20;81.00
15554;DHT22;7878;44.632;10.942;2023-02-28T12:25:31;11.60;79.90
15554;DHT22;7878;44.632;10.942;2023-02-28T12:28:01;11.70;77.90
15554;DHT22;7878;44.632;10.942;2023-02-28T12:30:34;11.90;81.40
15554;DHT22;7878;44.632;10.942;2023-02-28T12:33:08;12.00;79.50
15554;DHT22;7878;44.632;10.942;2023-02-28T12:35:47;12.10;80.20
15554;DHT22;7878;44.632;10.942;2023-02-28T12:38:21;12.00;81.10
15554;DHT22;7878;44.632;10.942;2023-02-28T12:40:52;11.90;82.40
15554;DHT22;7878;44.632;10.942;2023-02-28T12:43:21;12.10;83.40
15554;DHT22;7878;44.632;10.942;2023-02-28T12:46:00;12.20;83.30
15554;DHT22;7878;44.632;10.942;2023-02-28T12:51:35;12.40;82.50
15554;DHT22;7878;44.632;10.942;2023-02-28T12:54:22;12.30;83.30
15554;DHT22;7878;44.632;10.942;2023-02-28T12:57:14;12.10;79.70
15554;DHT22;7878;44.632;10.942;2023-02-28T12:59:55;11.80;81.10
15554;DHT22;7878;44.632;10.942;2023-02-28T13:05:39;11.60;82.90
15554;DHT22;7878;44.632;10.942;2023-02-28T13:10:58;12.10;82.70
15554;DHT22;7878;44.632;10.942;2023-02-28T13:13:29;12.40;82.70
15554;DHT22;7878;44.632;10.942;2023-02-28T13:16:08;12.70;81.80
15554;DHT22;7878;44.632;10.942;2023-02-28T13:18:43;12.90;80.80
15554;DHT22;7878;44.632;10.942;2023-02-28T13:21:28;13.10;79.60
15554;DHT22;7878;44.632;10.942;2023-02-28T13:24:03;12.90;77.90
15554;DHT22;7878;44.632;10.942;2023-02-28T13:29:00;12.40;82.60
15554;DHT22;7878;44.632;10.942;2023-02-28T13:31:27;12.60;82.10
15554;DHT22;7878;44.632;10.942;2023-02-28T13:36:32;12.60;80.90
15554;DHT22;7878;44.632;10.942;2023-02-28T13:41:45;12.20;78.70
15554;DHT22;7878;44.632;10.942;2023-02-28T13:44:17;12.00;80.40
15554;DHT22;7878;44.632;10.942;2023-02-28T14:00:34;11.10;80.80
15554;DHT22;7878;44.632;10.942;2023-02-28T14:05:34;10.80;82.90
15554;DHT22;7878;44.632;10.942;2023-02-28T14:08:07;10.80;81.50
15554;DHT22;7878;44.632;10.942;2023-02-28T14:10:48;10.60;81.80
15554;DHT22;7878;44.632;10.942;2023-02-28T14:13:44;10.40;81.40
15554;DHT22;7878;44.632;10.942;2023-02-28T14:16:25;10.40;81.70
15554;DHT22;7878;44.632;10.942;2023-02-28T14:19:25;10.40;81.90
15554;DHT22;7878;44.632;10.942;2023-02-28T14:25:10;10.40;83.10
15554;DHT22;7878;44.632;10.942;2023-02-28T14:27:58;10.40;81.30
15554;DHT22;7878;44.632;10.942;2023-02-28T14:36:32;10.50;83.90
15554;DHT22;7878;44.632;10.942;2023-02-28T14:39:04;10.40;82.90
15554;DHT22;7878;44.632;10.942;2023-02-28T14:41:33;10.40;83.50
15554;DHT22;7878;44.632;10.942;2023-02-28T14:44:12;10.30;83.80
15554;DHT22;7878;44.632;10.942;2023-02-28T14:46:39;10.40;83.70
15554;DHT22;7878;44.632;10.942;2023-02-28T14:49:07;10.30;84.10
15554;DHT22;7878;44.632;10.942;2023-02-28T14:51:38;10.30;84.20
15554;DHT22;7878;44.632;10.942;2023-02-28T14:54:04;10.30;83.70
15554;DHT22;7878;44.632;10.942;2023-02-28T14:56:38;10.30;84.20
15554;DHT22;7878;44.632;10.942;2023-02-28T14:59:06;10.40;84.30
15554;DHT22;7878;44.632;10.942;2023-02-28T15:01:46;10.40;83.70
15554;DHT22;7878;44.632;10.942;2023-02-28T15:04:22;10.40;84.40
15554;DHT22;7878;44.632;10.942;2023-02-28T15:07:14;10.30;83.80
15554;DHT22;7878;44.632;10.942;2023-02-28T15:09:41;10.20;84.20
15554;DHT22;7878;44.632;10.942;2023-02-28T15:12:07;10.20;84.80
15554;DHT22;7878;44.632;10.942;2023-02-28T15:14:34;10.20;84.90
15554;DHT22;7878;44.632;10.942;2023-02-28T15:17:08;10.20;84.50
15554;DHT22;7878;44.632;10.942;2023-02-28T15:19:41;10.20;85.00
15554;DHT22;7878;44.632;10.942;2023-02-28T15:22:17;10.30;85.30
15554;DHT22;7878;44.632;10.942;2023-02-28T15:24:47;10.30;85.20
15554;DHT22;7878;44.632;10.942;2023-02-28T15:27:30;10.30;85.00
15554;DHT22;7878;44.632;10.942;2023-02-28T15:30:20;10.30;85.20
15554;DHT22;7878;44.632;10.942;2023-02-28T15:33:06;10.20;84.90
15554;DHT22;7878;44.632;10.942;2023-02-28T15:35:33;10.20;85.20
15554;DHT22;7878;44.632;10.942;2023-02-28T15:40:40;10.20;85.20
15554;DHT22;7878;44.632;10.942;2023-02-28T15:43:13;10.10;84.80
15554;DHT22;7878;44.632;10.942;2023-02-28T15:45:41;10.10;85.10
15554;DHT22;7878;44.632;10.942;2023-02-28T15:48:32;10.00;85.40
15554;DHT22;7878;44.632;10.942;2023-02-28T15:51:06;10.00;85.20
15554;DHT22;7878;44.632;10.942;2023-02-28T15:53:37;10.00;85.10
15554;DHT22;7878;44.632;10.942;2023-02-28T15:56:21;9.90;86.50
15554;DHT22;7878;44.632;10.942;2023-02-28T15:58:47;9.90;86.20
15554;DHT22;7878;44.632;10.942;2023-02-28T16:01:24;9.90;86.50
15554;DHT22;7878;44.632;10.942;2023-02-28T16:03:53;9.90;86.90
15554;DHT22;7878;44.632;10.942;2023-02-28T16:08:51;9.90;86.70
15554;DHT22;7878;44.632;10.942;2023-02-28T16:11:20;9.90;86.80
15554;DHT22;7878;44.632;10.942;2023-02-28T16:13:46;9.90;86.60
15554;DHT22;7878;44.632;10.942;2023-02-28T16:16:17;9.80;86.20
15554;DHT22;7878;44.632;10.942;2023-02-28T16:18:42;9.80;86.50
15554;DHT22;7878;44.632;10.942;2023-02-28T16:21:08;9.70;86.60
15554;DHT22;7878;44.632;10.942;2023-02-28T16:23:34;9.70;87.10
15554;DHT22;7878;44.632;10.942;2023-02-28T16:26:00;9.80;86.70
15554;DHT22;7878;44.632;10.942;2023-02-28T16:28:36;9.70;86.50
15554;DHT22;7878;44.632;10.942;2023-02-28T16:31:05;9.60;86.50
15554;DHT22;7878;44.632;10.942;2023-02-28T16:33:34;9.50;86.60
15554;DHT22;7878;44.632;10.942;2023-02-28T16:36:00;9.50;86.70
15554;DHT22;7878;44.632;10.942;2023-02-28T16:38:26;9.50;86.80
15554;DHT22;7878;44.632;10.942;2023-02-28T16:40:53;9.50;87.10
15554;DHT22;7878;44.632;10.942;2023-02-28T16:43:23;9.50;86.40
15554;DHT22;7878;44.632;10.942;2023-02-28T16:45:57;9.50;86.40
15554;DHT22;7878;44.632;10.942;2023-02-28T16:48:26;9.50;86.50
15554;DHT22;7878;44.632;10.942;2023-02-28T16:50:52;9.50;86.80
15554;DHT22;7878;44.632;10.942;2023-02-28T16:53:18;9.50;86.80
15554;DHT22;7878;44.632;10.942;2023-02-28T16:55:43;9.50;86.90
15554;DHT22;7878;44.632;10.942;2023-02-28T16:58:14;9.50;86.90
15554;DHT22;7878;44.632;10.942;2023-02-28T17:00:40;9.50;86.60
15554;DHT22;7878;44.632;10.942;2023-02-28T17:03:29;9.40;86.80
15554;DHT22;7878;44.632;10.942;2023-02-28T17:05:55;9.40;87.10
15554;DHT22;7878;44.632;10.942;2023-02-28T17:08:21;9.50;87.60
15554;DHT22;7878;44.632;10.942;2023-02-28T17:10:47;9.50;87.50
15554;DHT22;7878;44.632;10.942;2023-02-28T17:13:12;9.50;87.70
15554;DHT22;7878;44.632;10.942;2023-02-28T17:15:39;9.50;87.70
15554;DHT22;7878;44.632;10.942;2023-02-28T17:18:06;9.50;87.80
15554;DHT22;7878;44.632;10.942;2023-02-28T17:20:32;9.40;87.80
15554;DHT22;7878;44.632;10.942;2023-02-28T17:22:58;9.40;87.50
15554;DHT22;7878;44.632;10.942;2023-02-28T17:25:24;9.40;87.30
15554;DHT22;7878;44.632;10.942;2023-02-28T17:27:50;9.40;87.40
15554;DHT22;7878;44.632;10.942;2023-02-28T17:30:20;9.30;87.30
15554;DHT22;7878;44.632;10.942;2023-02-28T17:32:46;9.30;87.60
15554;DHT22;7878;44.632;10.942;2023-02-28T17:35:13;9.40;87.50
15554;DHT22;7878;44.632;10.942;2023-02-28T17:37:38;9.40;87.30
15554;DHT22;7878;44.632;10.942;2023-02-28T17:40:05;9.40;87.00
15554;DHT22;7878;44.632;10.942;2023-02-28T17:42:31;9.30;87.20
15554;DHT22;7878;44.632;10.942;2023-02-28T17:44:57;9.30;87.20
15554;DHT22;7878;44.632;10.942;2023-02-28T17:47:23;9.40;87.20
15554;DHT22;7878;44.632;10.942;2023-02-28T17:49:49;9.30;87.20
15554;DHT22;7878;44.632;10.942;2023-02-28T17:52:15;9.40;87.10
15554;DHT22;7878;44.632;10.942;2023-02-28T17:54:40;9.40;87.30
15554;DHT22;7878;44.632;10.942;2023-02-28T17:57:08;9.40;87.30
15554;DHT22;7878;44.632;10.942;2023-02-28T17:59:34;9.40;87.50
15554;DHT22;7878;44.632;10.942;2023-02-28T18:02:00;9.40;87.50
15554;DHT22;7878;44.632;10.942;2023-02-28T18:04:26;9.40;87.70
15554;DHT22;7878;44.632;10.942;2023-02-28T18:06:52;9.40;87.30
15554;DHT22;7878;44.632;10.942;2023-02-28T18:09:21;9.40;88.00